Maximo, Ohio
Current Conditions -  °F | °C
As of 1:51 PM on Saturday 25 Oct 2014 (Local Time) from KCAK Reporting Station
Broken Clouds Broken Clouds  
Wind Chill: 67°   Ceiling: 20000
Heat Index: 67°   Visibility: 10mi
Dew Point: 52°   Wind: 17mph
Humidity: 59%   Direction: 230°SW
Pressure: 29.8"   Gusts: NA
Location:  40.88°N, 81.17°W
Report Text: KCAK 251751Z 23015KT 10SM SCT030 SCT070 BKN200 19/11 A2980 RMK AO2 SLP091 T01940111 10194 20067 58026
Loading
Personal Weather Stations






























Interactive Weather Map
Tropical Storm Tracking
New forecast layout! Learn more

10-Day Weather Forecast

Advertisements
Track Severe Weather on mobile